createdAt,value
2022-10-05T00:00:50.744Z,101508.78
2022-10-05T00:03:20.969Z,101506.88
2022-10-05T00:05:50.985Z,101510.97
2022-10-05T00:08:22.799Z,101508.19
2022-10-05T00:10:52.551Z,101509.03
2022-10-05T00:13:23.422Z,101508.97
2022-10-05T00:15:52.100Z,101505.47
2022-10-05T00:18:22.345Z,101497.50
2022-10-05T00:20:52.353Z,101488.75
2022-10-05T00:23:23.188Z,101489.47
2022-10-05T00:25:52.276Z,101489.34
2022-10-05T00:28:26.847Z,101504.97
2022-10-05T00:30:57.516Z,101510.16
2022-10-05T00:33:27.316Z,101509.28
2022-10-05T00:35:57.203Z,101511.91
2022-10-05T00:38:25.789Z,101511.00
2022-10-05T00:41:04.182Z,101499.66
2022-10-05T00:43:50.691Z,101503.97
2022-10-05T00:46:23.838Z,101502.19
2022-10-05T00:49:03.343Z,101501.28
2022-10-05T00:51:37.178Z,101489.13
2022-10-05T00:54:19.517Z,101480.47
2022-10-05T00:57:00.821Z,101483.91
2022-10-05T00:59:42.597Z,101479.44
2022-10-05T01:02:15.813Z,101479.44
2022-10-05T01:04:52.079Z,101470.00
2022-10-05T01:07:33.622Z,101464.59
2022-10-05T01:10:11.752Z,101478.44
2022-10-05T01:12:50.251Z,101459.41
2022-10-05T01:15:26.293Z,101468.88
2022-10-05T01:18:01.383Z,101468.03
2022-10-05T01:20:41.895Z,101468.94
2022-10-05T01:23:41.969Z,101471.53
2022-10-05T01:26:35.566Z,101457.72
2022-10-05T01:29:11.569Z,101448.22
2022-10-05T01:31:46.255Z,101436.91
2022-10-05T01:34:24.057Z,101435.13
2022-10-05T01:37:01.608Z,101458.56
2022-10-05T01:39:39.854Z,101454.13
2022-10-05T01:42:18.626Z,101450.66
2022-10-05T01:44:58.826Z,101455.09
2022-10-05T01:47:35.020Z,101457.63
2022-10-05T01:50:09.548Z,101460.09
2022-10-05T01:52:46.700Z,101451.44
2022-10-05T01:55:23.263Z,101453.06
2022-10-05T01:58:13.767Z,101450.53
2022-10-05T02:00:49.530Z,101459.88
2022-10-05T02:03:22.263Z,101459.03
2022-10-05T02:05:57.027Z,101461.47
2022-10-05T02:08:32.531Z,101467.44
2022-10-05T02:11:04.231Z,101473.41
2022-10-05T02:13:37.807Z,101470.69
2022-10-05T02:16:12.387Z,101471.53
2022-10-05T02:18:47.971Z,101481.91
2022-10-05T02:21:16.680Z,101475.72
2022-10-05T02:23:49.612Z,101472.19
2022-10-05T02:26:18.742Z,101475.63
2022-10-05T02:28:53.422Z,101463.38
2022-10-05T02:31:30.238Z,101466.84
2022-10-05T02:34:23.820Z,101473.72
2022-10-05T02:37:03.429Z,101469.38
2022-10-05T02:39:38.283Z,101464.09
2022-10-05T02:42:13.740Z,101471.81
2022-10-05T02:44:54.851Z,101474.34
2022-10-05T02:47:33.560Z,101469.91
2022-10-05T02:50:07.082Z,101472.47
2022-10-05T02:52:44.627Z,101471.44
2022-10-05T02:55:19.221Z,101461.03
2022-10-05T02:57:54.820Z,101469.59
2022-10-05T03:00:25.805Z,101469.50
2022-10-05T03:03:03.335Z,101464.25
2022-10-05T03:05:38.719Z,101455.63
2022-10-05T03:08:13.192Z,101447.66
2022-10-05T03:10:57.227Z,101458.91
2022-10-05T03:13:33.132Z,101449.34
2022-10-05T03:16:16.691Z,101459.75
2022-10-05T03:19:04.374Z,101456.22
2022-10-05T03:21:48.553Z,101453.72
2022-10-05T03:24:31.125Z,101447.66
2022-10-05T03:27:08.320Z,101442.44
2022-10-05T03:29:43.640Z,101438.09
2022-10-05T03:32:25.527Z,101441.53
2022-10-05T03:35:02.956Z,101432.13
2022-10-05T03:37:38.660Z,101425.13
2022-10-05T03:40:17.156Z,101421.66
2022-10-05T03:42:55.773Z,101424.31
2022-10-05T03:45:29.741Z,101419.91
2022-10-05T03:48:06.701Z,101413.91
2022-10-05T03:50:45.668Z,101419.13
2022-10-05T03:53:20.261Z,101419.13
2022-10-05T03:55:53.131Z,101412.25
2022-10-05T03:58:26.468Z,101407.03
2022-10-05T04:01:00.431Z,101403.63
2022-10-05T04:03:34.039Z,101394.97
2022-10-05T04:06:11.103Z,101395.09
2022-10-05T04:08:47.991Z,101395.09
2022-10-05T04:11:22.616Z,101396.00
2022-10-05T04:13:57.084Z,101397.72
2022-10-05T04:16:29.624Z,101405.50
2022-10-05T04:19:04.896Z,101398.53
2022-10-05T04:21:39.584Z,101398.53
2022-10-05T04:24:15.555Z,101393.34
2022-10-05T04:26:51.849Z,101392.34
2022-10-05T04:29:32.422Z,101407.19
2022-10-05T04:32:14.594Z,101405.38
2022-10-05T04:34:57.849Z,101407.97
2022-10-05T04:37:37.249Z,101406.28
2022-10-05T04:40:18.900Z,101393.22
2022-10-05T04:42:55.524Z,101398.41
2022-10-05T04:45:33.804Z,101389.69
2022-10-05T04:48:34.233Z,101406.28
2022-10-05T04:51:15.609Z,101408.94
2022-10-05T04:53:55.335Z,101401.84
2022-10-05T04:56:33.765Z,101402.75
2022-10-05T04:59:26.997Z,101406.13
2022-10-05T05:02:06.787Z,101407.81
2022-10-05T05:05:00.635Z,101403.44
2022-10-05T05:07:42.087Z,101404.22
2022-10-05T05:10:51.709Z,101401.63
2022-10-05T05:13:44.195Z,101399.06
2022-10-05T05:16:21.607Z,101393.81
2022-10-05T05:19:07.460Z,101394.75
2022-10-05T05:21:44.386Z,101400.00
2022-10-05T05:24:20.995Z,101406.91
2022-10-05T05:27:03.108Z,101405.28
2022-10-05T05:29:43.670Z,101396.50
2022-10-05T05:32:22.958Z,101405.28
2022-10-05T05:35:10.000Z,101389.69
2022-10-05T05:37:48.956Z,101386.25
2022-10-05T05:40:20.572Z,101383.72
2022-10-05T05:42:58.821Z,101375.97
2022-10-05T05:45:40.700Z,101366.56
2022-10-05T05:48:22.353Z,101365.75
2022-10-05T05:50:59.448Z,101369.34
2022-10-05T05:53:34.430Z,101376.31
2022-10-05T05:56:10.488Z,101374.66
2022-10-05T05:58:48.414Z,101386.84
2022-10-05T06:01:33.359Z,101394.81
2022-10-05T06:04:10.777Z,101386.22
2022-10-05T06:06:44.307Z,101386.28
2022-10-05T06:09:19.644Z,101388.97
2022-10-05T06:11:52.180Z,101388.13
2022-10-05T06:14:30.494Z,101376.00
2022-10-05T06:17:04.112Z,101384.69
2022-10-05T06:19:35.984Z,101389.19
2022-10-05T06:22:08.834Z,101391.84
2022-10-05T06:24:41.929Z,101396.28
2022-10-05T06:27:25.733Z,101390.31
2022-10-05T06:30:13.221Z,101399.16
2022-10-05T06:33:01.396Z,101401.81
2022-10-05T06:35:44.528Z,101404.69
2022-10-05T06:38:36.203Z,101401.31
2022-10-05T06:41:16.796Z,101395.44
2022-10-05T06:43:56.042Z,101399.03
2022-10-05T06:46:31.582Z,101409.63
2022-10-05T06:49:15.564Z,101407.09
2022-10-05T06:51:52.481Z,101400.28
2022-10-05T06:54:36.545Z,101403.91
2022-10-05T06:57:14.027Z,101412.81
2022-10-05T06:59:51.120Z,101408.69
2022-10-05T07:02:28.375Z,101414.03
2022-10-05T07:05:26.906Z,101396.84
2022-10-05T07:07:59.475Z,101403.03
2022-10-05T07:10:34.682Z,101407.56
2022-10-05T07:13:14.895Z,101414.72
2022-10-05T07:15:50.101Z,101404.44
2022-10-05T07:18:49.207Z,101408.00
2022-10-05T07:21:29.433Z,101398.56
2022-10-05T07:24:05.804Z,101411.75
2022-10-05T07:26:41.936Z,101401.44
2022-10-05T07:29:35.994Z,101401.50
2022-10-05T07:32:16.288Z,101408.59
2022-10-05T07:35:00.988Z,101414.00
2022-10-05T07:37:51.596Z,101419.34
2022-10-05T07:40:26.265Z,101406.44
2022-10-05T07:43:06.404Z,101404.94
2022-10-05T07:45:41.056Z,101406.88
2022-10-05T07:48:18.278Z,101410.59
2022-10-05T07:51:00.012Z,101413.38
2022-10-05T07:53:35.457Z,101425.94
2022-10-05T07:56:13.570Z,101427.13
2022-10-05T07:58:47.994Z,101417.63
2022-10-05T08:01:23.480Z,101412.59
2022-10-05T08:03:57.639Z,101405.13
2022-10-05T08:06:40.754Z,101412.28
2022-10-05T08:09:21.536Z,101418.63
2022-10-05T08:11:57.205Z,101423.13
2022-10-05T08:14:33.836Z,101418.06
2022-10-05T08:17:10.244Z,101402.63
2022-10-05T08:19:47.704Z,101376.75
2022-10-05T08:22:25.531Z,101376.09
2022-10-05T08:25:00.434Z,101371.03
2022-10-05T08:27:36.872Z,101366.06
2022-10-05T08:30:10.009Z,101369.72
2022-10-05T08:32:44.815Z,101370.72
2022-10-05T08:35:27.344Z,101364.84
2022-10-05T08:37:58.069Z,101356.28
2022-10-05T08:40:58.062Z,101351.22
2022-10-05T08:43:55.193Z,101354.94
2022-10-05T08:46:51.292Z,101346.41
2022-10-05T08:50:01.410Z,101350.16
2022-10-05T08:52:31.628Z,101345.13
2022-10-05T08:55:23.621Z,101343.53
2022-10-05T08:58:04.841Z,101334.13
2022-10-05T09:00:46.950Z,101338.66
2022-10-05T09:03:28.978Z,101332.72
2022-10-05T09:06:22.975Z,101335.56
2022-10-05T09:09:32.304Z,101334.06
2022-10-05T09:12:33.470Z,101342.94
2022-10-05T09:15:26.153Z,101329.03
2022-10-05T09:18:31.425Z,101333.59
2022-10-05T09:21:04.595Z,101335.44
2022-10-05T09:23:40.120Z,101330.34
2022-10-05T09:26:29.794Z,101328.72
2022-10-05T09:29:15.593Z,101333.31
2022-10-05T09:32:14.205Z,101321.16
2022-10-05T09:35:06.255Z,101317.78
2022-10-05T09:37:58.287Z,101319.72
2022-10-05T09:41:05.086Z,101321.56
2022-10-05T09:44:01.294Z,101320.75
2022-10-05T09:47:02.201Z,101320.03
2022-10-05T09:49:57.154Z,101321.09
2022-10-05T09:52:51.720Z,101315.97
2022-10-05T09:55:51.435Z,101312.41
2022-10-05T09:58:49.821Z,101316.94
2022-10-05T10:01:37.075Z,101304.69
2022-10-05T10:04:40.145Z,101307.38
2022-10-05T10:07:39.091Z,101300.50
2022-10-05T10:10:40.697Z,101304.03
2022-10-05T10:13:40.715Z,101304.19
2022-10-05T10:16:20.173Z,101292.72
2022-10-05T10:19:21.242Z,101290.97
2022-10-05T10:22:20.558Z,101291.00
2022-10-05T10:25:21.779Z,101296.34
2022-10-05T10:28:07.938Z,101290.34
2022-10-05T10:30:56.174Z,101300.09
2022-10-05T10:33:46.827Z,101301.97
2022-10-05T10:36:23.122Z,101307.19
2022-10-05T10:39:07.656Z,101307.28
2022-10-05T10:41:54.554Z,101311.72
2022-10-05T10:44:52.438Z,101318.06
2022-10-05T10:48:00.422Z,101310.97
2022-10-05T10:51:05.261Z,101315.41
2022-10-05T10:54:04.768Z,101319.88
2022-10-05T10:57:08.716Z,101304.13
2022-10-05T11:00:15.731Z,101305.22
2022-10-05T11:03:29.409Z,101310.59
2022-10-05T11:06:22.307Z,101299.22
2022-10-05T11:09:09.401Z,101296.72
2022-10-05T11:12:20.704Z,101288.84
2022-10-05T11:15:07.527Z,101292.47
2022-10-05T11:18:09.347Z,101283.84
2022-10-05T11:21:13.093Z,101272.66
2022-10-05T11:24:10.539Z,101272.88
2022-10-05T11:26:55.690Z,101272.97
2022-10-05T11:30:02.020Z,101266.06
2022-10-05T11:33:11.304Z,101263.44
2022-10-05T11:36:04.471Z,101258.25
2022-10-05T11:38:55.841Z,101263.53
2022-10-05T11:41:49.431Z,101244.09
2022-10-05T11:45:06.831Z,101253.78
2022-10-05T11:47:41.664Z,101250.34
2022-10-05T11:50:21.067Z,101247.72
2022-10-05T11:52:58.425Z,101250.31
2022-10-05T11:55:32.925Z,101241.53
2022-10-05T11:58:07.710Z,101245.97
2022-10-05T12:00:43.717Z,101238.97
2022-10-05T12:03:34.331Z,101233.69
2022-10-05T12:06:23.518Z,101237.19
2022-10-05T12:09:04.406Z,101237.09
2022-10-05T12:12:04.256Z,101228.38
2022-10-05T12:14:42.439Z,101226.66
2022-10-05T12:17:21.703Z,101220.44
2022-10-05T12:19:55.839Z,101216.72
2022-10-05T12:22:27.646Z,101212.16
2022-10-05T12:25:12.864Z,101219.81
2022-10-05T12:27:46.277Z,101216.81
2022-10-05T12:30:18.856Z,101216.53
2022-10-05T12:33:02.215Z,101205.63
2022-10-05T12:35:47.940Z,101187.63
2022-10-05T12:38:27.664Z,101194.28
2022-10-05T12:41:05.535Z,101180.84
2022-10-05T12:43:48.265Z,101195.91
2022-10-05T12:46:29.494Z,101195.91
2022-10-05T12:49:24.830Z,101200.16
2022-10-05T12:51:58.482Z,101186.03
2022-10-05T12:54:38.757Z,101188.44
2022-10-05T12:57:16.041Z,101185.56
2022-10-05T12:59:51.884Z,101187.13
2022-10-05T13:02:30.495Z,101177.44
2022-10-05T13:05:04.381Z,101182.31
2022-10-05T13:07:50.622Z,101180.56
2022-10-05T13:10:30.806Z,101176.50
2022-10-05T13:13:24.202Z,101181.50
2022-10-05T13:16:00.366Z,101180.22
2022-10-05T13:18:41.872Z,101176.06
2022-10-05T13:21:15.337Z,101189.84
2022-10-05T13:23:57.657Z,101185.84
2022-10-05T13:26:33.579Z,101171.97
2022-10-05T13:29:14.019Z,101179.06
2022-10-05T13:31:47.959Z,101183.69
2022-10-05T13:34:22.977Z,101174.16
2022-10-05T13:37:04.156Z,101179.44
2022-10-05T13:39:46.971Z,101171.63
2022-10-05T13:42:19.682Z,101173.41
2022-10-05T13:44:52.403Z,101163.69
2022-10-05T13:47:31.575Z,101165.50
2022-10-05T13:50:07.073Z,101159.38
2022-10-05T13:52:46.615Z,101155.06
2022-10-05T13:55:22.660Z,101161.22
2022-10-05T13:57:57.876Z,101159.53
2022-10-05T14:00:28.801Z,101152.44
2022-10-05T14:03:00.881Z,101155.09
2022-10-05T14:05:31.540Z,101155.00
2022-10-05T14:08:17.473Z,101159.41
2022-10-05T14:10:48.515Z,101155.09
2022-10-05T14:13:24.428Z,101154.25
2022-10-05T14:16:04.583Z,101156.97
2022-10-05T14:18:37.505Z,101149.06
2022-10-05T14:21:19.430Z,101148.16
2022-10-05T14:23:48.182Z,101142.06
2022-10-05T14:26:31.826Z,101142.97
2022-10-05T14:29:02.875Z,101135.13
2022-10-05T14:31:35.949Z,101141.28
2022-10-05T14:34:31.311Z,101130.72
2022-10-05T14:37:03.691Z,101129.81
2022-10-05T14:39:36.216Z,101129.84
2022-10-05T14:42:16.480Z,101114.94
2022-10-05T14:44:46.756Z,101114.94
2022-10-05T14:47:23.836Z,101110.53
2022-10-05T14:50:15.628Z,101110.56
2022-10-05T14:52:51.894Z,101102.69
2022-10-05T14:55:39.381Z,101101.78
2022-10-05T14:58:33.357Z,101096.53
2022-10-05T15:01:13.681Z,101103.56
2022-10-05T15:03:52.142Z,101112.34
2022-10-05T15:06:29.436Z,101096.53
2022-10-05T15:09:17.729Z,101104.44
2022-10-05T15:11:53.686Z,101105.34
2022-10-05T15:14:27.341Z,101101.81
2022-10-05T15:17:00.151Z,101098.31
2022-10-05T15:19:39.128Z,101098.31
2022-10-05T15:22:24.397Z,101108.88
2022-10-05T15:25:02.601Z,101108.88
2022-10-05T15:27:42.257Z,101109.78
2022-10-05T15:30:14.196Z,101102.75
2022-10-05T15:33:04.543Z,101101.91
2022-10-05T15:35:55.707Z,101101.91
2022-10-05T15:38:26.676Z,101096.63
2022-10-05T15:41:08.168Z,101097.50
2022-10-05T15:43:48.555Z,101095.78
2022-10-05T15:46:23.448Z,101097.56
2022-10-05T15:49:08.527Z,101096.66
2022-10-05T15:51:51.040Z,101096.66
2022-10-05T15:54:43.056Z,101094.91
2022-10-05T15:57:26.698Z,101098.44
2022-10-05T16:00:02.075Z,101091.41
2022-10-05T16:02:38.735Z,101100.19
2022-10-05T16:05:49.660Z,101110.72
2022-10-05T16:08:54.322Z,101107.19
2022-10-05T16:11:32.708Z,101099.28
2022-10-05T16:14:14.325Z,101100.16
2022-10-05T16:16:58.363Z,101095.78
2022-10-05T16:19:33.162Z,101100.13
2022-10-05T16:22:14.191Z,101099.25
2022-10-05T16:24:56.148Z,101092.22
2022-10-05T16:27:40.478Z,101090.50
2022-10-05T16:30:13.709Z,101091.34
2022-10-05T16:32:50.043Z,101091.38
2022-10-05T16:35:30.851Z,101090.44
2022-10-05T16:38:08.070Z,101087.81
2022-10-05T16:40:45.701Z,101087.78
2022-10-05T16:43:26.879Z,101080.75
2022-10-05T16:46:10.043Z,101076.34
2022-10-05T16:48:49.664Z,101083.31
2022-10-05T16:51:26.072Z,101082.38
2022-10-05T16:54:03.205Z,101078.88
2022-10-05T16:56:39.957Z,101082.34
2022-10-05T16:59:30.784Z,101082.28
2022-10-05T17:02:07.569Z,101088.44
2022-10-05T17:04:46.081Z,101086.63
2022-10-05T17:07:30.699Z,101084.84
2022-10-05T17:10:27.551Z,101087.44
2022-10-05T17:13:05.113Z,101089.97
2022-10-05T17:15:42.577Z,101096.06
2022-10-05T17:18:24.366Z,101091.63
2022-10-05T17:21:02.583Z,101089.84
2022-10-05T17:23:50.244Z,101093.25
2022-10-05T17:26:35.689Z,101095.84
2022-10-05T17:29:16.476Z,101093.16
2022-10-05T17:32:11.871Z,101099.19
2022-10-05T17:35:18.159Z,101103.47
2022-10-05T17:38:07.509Z,101106.94
2022-10-05T17:40:39.551Z,101097.22
2022-10-05T17:43:25.829Z,101098.09
2022-10-05T17:45:58.596Z,101106.81
2022-10-05T17:48:42.819Z,101098.88
2022-10-05T17:51:57.193Z,101108.41
2022-10-05T17:54:46.882Z,101115.38
2022-10-05T17:57:22.358Z,101103.03
2022-10-05T18:00:00.576Z,101100.38
2022-10-05T18:02:44.068Z,101103.81
2022-10-05T18:05:25.719Z,101096.81
2022-10-05T18:08:28.915Z,101101.13
2022-10-05T18:11:13.007Z,101098.47
2022-10-05T18:13:46.391Z,101098.44
2022-10-05T18:16:35.592Z,101098.41
2022-10-05T18:19:16.769Z,101090.53
2022-10-05T18:22:03.459Z,101091.34
2022-10-05T18:24:53.172Z,101094.81
2022-10-05T18:27:43.561Z,101097.38
2022-10-05T18:30:22.921Z,101097.38
2022-10-05T18:33:27.279Z,101098.22
2022-10-05T18:36:12.031Z,101092.97
2022-10-05T18:38:56.332Z,101092.94
2022-10-05T18:41:40.469Z,101099.91
2022-10-05T18:44:25.112Z,101094.66
2022-10-05T18:47:02.082Z,101089.38
2022-10-05T18:49:45.044Z,101092.88
2022-10-05T18:52:23.495Z,101091.09
2022-10-05T18:55:03.868Z,101096.31
2022-10-05T18:58:00.818Z,101087.59
2022-10-05T19:00:43.785Z,101086.72
2022-10-05T19:03:20.549Z,101087.56
2022-10-05T19:06:00.220Z,101084.94
2022-10-05T19:08:39.988Z,101091.94
2022-10-05T19:11:19.107Z,101085.78
2022-10-05T19:13:55.828Z,101089.25
2022-10-05T19:16:40.143Z,101096.22
2022-10-05T19:19:30.748Z,101094.44
2022-10-05T19:22:06.007Z,101102.31
2022-10-05T19:24:47.715Z,101108.41
2022-10-05T19:27:27.221Z,101112.78
2022-10-05T19:30:13.677Z,101118.84
2022-10-05T19:32:56.961Z,101124.94
2022-10-05T19:35:34.207Z,101127.56
2022-10-05T19:38:22.159Z,101123.13
2022-10-05T19:40:59.851Z,101124.81
2022-10-05T19:43:41.836Z,101133.53
2022-10-05T19:46:19.918Z,101139.59
2022-10-05T19:48:51.368Z,101136.09
2022-10-05T19:51:29.552Z,101142.19
2022-10-05T19:54:01.341Z,101144.78
2022-10-05T19:56:34.824Z,101150.91
2022-10-05T19:59:13.232Z,101152.69
2022-10-05T20:01:50.775Z,101147.38
2022-10-05T20:04:34.395Z,101158.75
2022-10-05T20:07:03.369Z,101155.22
2022-10-05T20:09:51.289Z,101158.69
2022-10-05T20:12:23.066Z,101163.94
2022-10-05T20:15:26.630Z,101162.22
2022-10-05T20:18:12.689Z,101155.22
2022-10-05T20:20:45.780Z,101164.84
2022-10-05T20:23:24.924Z,101166.63
2022-10-05T20:26:11.391Z,101181.56
2022-10-05T20:28:41.619Z,101181.63
2022-10-05T20:31:10.229Z,101188.53
2022-10-05T20:33:39.014Z,101192.03
2022-10-05T20:36:08.667Z,101194.69
2022-10-05T20:38:40.886Z,101199.03
2022-10-05T20:41:10.458Z,101197.38
2022-10-05T20:43:39.449Z,101202.66
2022-10-05T20:46:09.430Z,101206.19
2022-10-05T20:48:37.935Z,101202.78
2022-10-05T20:51:06.685Z,101202.78
2022-10-05T20:53:35.269Z,101214.16
2022-10-05T20:56:04.726Z,101210.66
2022-10-05T20:58:33.209Z,101220.31
2022-10-05T21:01:19.084Z,101216.84
2022-10-05T21:03:49.665Z,101223.78
2022-10-05T21:06:19.102Z,101222.94
2022-10-05T21:08:47.905Z,101229.03
2022-10-05T21:11:16.447Z,101223.81
2022-10-05T21:13:45.826Z,101232.47
2022-10-05T21:16:16.383Z,101225.50
2022-10-05T21:18:46.945Z,101234.16
2022-10-05T21:21:17.708Z,101235.06
2022-10-05T21:23:46.832Z,101239.47
2022-10-05T21:26:16.475Z,101243.03
2022-10-05T21:28:45.028Z,101230.81
2022-10-05T21:31:13.559Z,101240.34
2022-10-05T21:33:42.186Z,101229.91
2022-10-05T21:36:10.775Z,101231.78
2022-10-05T21:38:40.627Z,101233.59
2022-10-05T21:41:09.549Z,101243.22
2022-10-05T21:43:38.042Z,101243.28
2022-10-05T21:46:07.463Z,101236.28
2022-10-05T21:48:38.954Z,101244.22
2022-10-05T21:51:10.359Z,101246.00
2022-10-05T21:53:44.052Z,101252.09
2022-10-05T21:56:15.460Z,101252.09
2022-10-05T21:58:45.819Z,101257.34
2022-10-05T22:01:16.878Z,101259.00
2022-10-05T22:03:48.928Z,101254.75
2022-10-05T22:06:17.632Z,101247.78
2022-10-05T22:08:47.532Z,101256.47
2022-10-05T22:11:18.001Z,101255.66
2022-10-05T22:13:48.811Z,101260.84
2022-10-05T22:16:19.259Z,101259.09
2022-10-05T22:18:48.280Z,101254.75
2022-10-05T22:21:17.435Z,101256.56
2022-10-05T22:23:47.399Z,101253.03
2022-10-05T22:26:19.068Z,101259.91
2022-10-05T22:28:48.503Z,101258.09
2022-10-05T22:31:18.202Z,101262.44
2022-10-05T22:33:46.984Z,101267.69
2022-10-05T22:36:15.628Z,101265.84
2022-10-05T22:38:44.797Z,101276.34
2022-10-05T22:41:17.269Z,101271.97
2022-10-05T22:43:48.683Z,101272.06
2022-10-05T22:46:17.608Z,101272.84
2022-10-05T22:48:46.245Z,101274.66
2022-10-05T22:51:14.743Z,101271.09
2022-10-05T22:53:43.304Z,101274.59
2022-10-05T22:56:14.765Z,101276.31
2022-10-05T22:58:44.224Z,101279.75
2022-10-05T23:01:14.866Z,101288.59
2022-10-05T23:03:44.301Z,101275.47
2022-10-05T23:06:15.156Z,101282.41
2022-10-05T23:08:44.111Z,101285.88
2022-10-05T23:11:16.182Z,101287.63
2022-10-05T23:13:45.004Z,101298.09
2022-10-05T23:16:14.957Z,101293.72
2022-10-05T23:18:44.239Z,101291.09
2022-10-05T23:21:12.790Z,101293.72
2022-10-05T23:23:42.973Z,101297.28
2022-10-05T23:26:12.714Z,101293.72
2022-10-05T23:28:47.308Z,101298.94
2022-10-05T23:31:17.902Z,101298.88
2022-10-05T23:33:46.464Z,101304.13
2022-10-05T23:36:17.235Z,101310.28
2022-10-05T23:38:46.345Z,101309.41
2022-10-05T23:41:16.071Z,101308.59
2022-10-05T23:43:46.013Z,101307.75
2022-10-05T23:46:15.470Z,101313.91
2022-10-05T23:48:44.236Z,101319.06
2022-10-05T23:51:14.239Z,101314.69
2022-10-05T23:53:42.765Z,101314.78
2022-10-05T23:56:11.455Z,101317.31
2022-10-05T23:58:40.292Z,101327.00
